sensor_id;sensor_type;location;lat;lon;timestamp;pressure;altitude;pressure_sealevel;temperature;humidity
68489;BME280;55481;48.764;8.936;2022-08-19T00:00:28;96610;;;20.2;60.5
68489;BME280;55481;48.764;8.936;2022-08-19T00:05:22;96610;;;20.1;61
68489;BME280;55481;48.764;8.936;2022-08-19T00:07:52;96610;;;20;61
68489;BME280;55481;48.764;8.936;2022-08-19T00:10:23;96610;;;20.1;61
68489;BME280;55481;48.764;8.936;2022-08-19T00:12:54;96600;;;20.1;61
68489;BME280;55481;48.764;8.936;2022-08-19T00:17:49;96600;;;20.2;60.5
68489;BME280;55481;48.764;8.936;2022-08-19T00:20:20;96610;;;20.1;61
68489;BME280;55481;48.764;8.936;2022-08-19T00:22:51;96610;;;20.1;61
68489;BME280;55481;48.764;8.936;2022-08-19T00:25:22;96610;;;20.1;61
68489;BME280;55481;48.764;8.936;2022-08-19T00:27:52;96610;;;20.1;61
68489;BME280;55481;48.764;8.936;2022-08-19T00:30:23;96600;;;20;61
68489;BME280;55481;48.764;8.936;2022-08-19T00:33:10;96600;;;20.1;61
68489;BME280;55481;48.764;8.936;2022-08-19T00:35:43;96590;;;20.1;60.5
68489;BME280;55481;48.764;8.936;2022-08-19T00:40:37;96590;;;20;61
68489;BME280;55481;48.764;8.936;2022-08-19T00:43:09;96570;;;20;61
68489;BME280;55481;48.764;8.936;2022-08-19T00:45:33;96560;;;20;61
68489;BME280;55481;48.764;8.936;2022-08-19T00:48:04;96560;;;20;61
68489;BME280;55481;48.764;8.936;2022-08-19T00:52:59;96570;;;20.1;61
68489;BME280;55481;48.764;8.936;2022-08-19T00:55:30;96570;;;20;61
68489;BME280;55481;48.764;8.936;2022-08-19T00:58:02;96580;;;19.9;61
68489;BME280;55481;48.764;8.936;2022-08-19T01:00:31;96590;;;19.9;61
68489;BME280;55481;48.764;8.936;2022-08-19T01:03:06;96590;;;19.9;61
68489;BME280;55481;48.764;8.936;2022-08-19T01:08:03;96590;;;19.8;61.5
68489;BME280;55481;48.764;8.936;2022-08-19T01:10:37;96590;;;19.9;61
68489;BME280;55481;48.764;8.936;2022-08-19T01:15:42;96590;;;19.9;61
68489;BME280;55481;48.764;8.936;2022-08-19T01:18:13;96590;;;19.9;61
68489;BME280;55481;48.764;8.936;2022-08-19T01:20:45;96590;;;19.8;61
68489;BME280;55481;48.764;8.936;2022-08-19T01:23:07;96580;;;19.7;61.5
68489;BME280;55481;48.764;8.936;2022-08-19T01:25:46;96580;;;19.8;61.5
68489;BME280;55481;48.764;8.936;2022-08-19T01:33:11;96580;;;19.7;61.5
68489;BME280;55481;48.764;8.936;2022-08-19T01:35:41;96580;;;19.6;61.5
68489;BME280;55481;48.764;8.936;2022-08-19T01:38:21;96580;;;19.6;61.5
68489;BME280;55481;48.764;8.936;2022-08-19T01:40:42;96570;;;19.6;61.5
68489;BME280;55481;48.764;8.936;2022-08-19T01:45:50;96580;;;19.5;61.5
68489;BME280;55481;48.764;8.936;2022-08-19T01:48:22;96580;;;19.6;61.5
68489;BME280;55481;48.764;8.936;2022-08-19T01:50:52;96580;;;19.6;61.5
68489;BME280;55481;48.764;8.936;2022-08-19T01:53:17;96570;;;19.6;61.5
68489;BME280;55481;48.764;8.936;2022-08-19T02:00:49;96570;;;19.7;61.5
68489;BME280;55481;48.764;8.936;2022-08-19T02:03:20;96570;;;19.7;61
68489;BME280;55481;48.764;8.936;2022-08-19T02:05:58;96570;;;19.6;61.5
68489;BME280;55481;48.764;8.936;2022-08-19T02:08:21;96580;;;19.6;61.5
68489;BME280;55481;48.764;8.936;2022-08-19T02:10:52;96590;;;19.6;61.5
68489;BME280;55481;48.764;8.936;2022-08-19T02:13:23;96590;;;19.5;61.5
68489;BME280;55481;48.764;8.936;2022-08-19T02:16:00;96590;;;19.6;61.5
68489;BME280;55481;48.764;8.936;2022-08-19T02:18:31;96580;;;19.6;61.5
68489;BME280;55481;48.764;8.936;2022-08-19T02:21:02;96580;;;19.6;61.5
68489;BME280;55481;48.764;8.936;2022-08-19T02:23:33;96570;;;19.6;61.5
68489;BME280;55481;48.764;8.936;2022-08-19T02:26:11;96580;;;19.5;61.5
68489;BME280;55481;48.764;8.936;2022-08-19T02:28:41;96580;;;19.5;61.5
68489;BME280;55481;48.764;8.936;2022-08-19T02:31:11;96580;;;19.5;61.5
68489;BME280;55481;48.764;8.936;2022-08-19T02:36:05;96570;;;19.5;62
68489;BME280;55481;48.764;8.936;2022-08-19T02:38:36;96570;;;19.5;61.5
68489;BME280;55481;48.764;8.936;2022-08-19T02:41:09;96560;;;19.4;62
68489;BME280;55481;48.764;8.936;2022-08-19T02:46:02;96560;;;19.4;62
68489;BME280;55481;48.764;8.936;2022-08-19T02:48:32;96560;;;19.4;62
68489;BME280;55481;48.764;8.936;2022-08-19T02:51:03;96550;;;19.4;62
68489;BME280;55481;48.764;8.936;2022-08-19T02:53:34;96560;;;19.4;62
68489;BME280;55481;48.764;8.936;2022-08-19T02:56:06;96560;;;19.4;62
68489;BME280;55481;48.764;8.936;2022-08-19T02:58:35;96560;;;19.3;62
68489;BME280;55481;48.764;8.936;2022-08-19T03:01:20;96570;;;19.3;62
68489;BME280;55481;48.764;8.936;2022-08-19T03:03:44;96570;;;19.3;62
68489;BME280;55481;48.764;8.936;2022-08-19T03:06:15;96570;;;19.3;62
68489;BME280;55481;48.764;8.936;2022-08-19T03:11:12;96570;;;19.3;62
68489;BME280;55481;48.764;8.936;2022-08-19T03:21:16;96570;;;19.2;62.5
68489;BME280;55481;48.764;8.936;2022-08-19T03:23:44;96570;;;19.1;62.5
68489;BME280;55481;48.764;8.936;2022-08-19T03:26:15;96580;;;19;62.5
68489;BME280;55481;48.764;8.936;2022-08-19T03:28:45;96580;;;19;62.5
68489;BME280;55481;48.764;8.936;2022-08-19T03:31:17;96580;;;19;62.5
68489;BME280;55481;48.764;8.936;2022-08-19T03:36:24;96560;;;19.1;62.5
68489;BME280;55481;48.764;8.936;2022-08-19T03:38:56;96570;;;19;62.5
68489;BME280;55481;48.764;8.936;2022-08-19T03:41:27;96560;;;19;62.5
68489;BME280;55481;48.764;8.936;2022-08-19T03:49:10;96570;;;18.9;63
68489;BME280;55481;48.764;8.936;2022-08-19T03:51:35;96570;;;18.9;63
68489;BME280;55481;48.764;8.936;2022-08-19T03:54:07;96570;;;18.9;62.5
68489;BME280;55481;48.764;8.936;2022-08-19T03:58:58;96570;;;19;62.5
68489;BME280;55481;48.764;8.936;2022-08-19T04:01:29;96580;;;18.9;62.5
68489;BME280;55481;48.764;8.936;2022-08-19T04:04:00;96590;;;18.9;62.5
68489;BME280;55481;48.764;8.936;2022-08-19T04:11:26;96600;;;18.9;63
68489;BME280;55481;48.764;8.936;2022-08-19T04:13:56;96600;;;18.9;63
68489;BME280;55481;48.764;8.936;2022-08-19T04:16:28;96600;;;18.9;63
68489;BME280;55481;48.764;8.936;2022-08-19T04:18:59;96600;;;18.9;62.5
68489;BME280;55481;48.764;8.936;2022-08-19T04:21:28;96600;;;18.9;62.5
68489;BME280;55481;48.764;8.936;2022-08-19T04:23:59;96600;;;18.9;63
68489;BME280;55481;48.764;8.936;2022-08-19T04:26:32;96600;;;18.9;63
68489;BME280;55481;48.764;8.936;2022-08-19T04:29:03;96600;;;19;62.5
68489;BME280;55481;48.764;8.936;2022-08-19T04:31:33;96600;;;19;62.5
68489;BME280;55481;48.764;8.936;2022-08-19T04:41:40;96590;;;18.9;63
68489;BME280;55481;48.764;8.936;2022-08-19T04:44:11;96590;;;18.9;62.5
68489;BME280;55481;48.764;8.936;2022-08-19T04:46:51;96590;;;19;62.5
68489;BME280;55481;48.764;8.936;2022-08-19T04:49:13;96590;;;18.8;63
68489;BME280;55481;48.764;8.936;2022-08-19T04:51:45;96590;;;18.9;63
68489;BME280;55481;48.764;8.936;2022-08-19T04:56:40;96580;;;19;62.5
68489;BME280;55481;48.764;8.936;2022-08-19T04:59:10;96590;;;19;62.5
68489;BME280;55481;48.764;8.936;2022-08-19T05:09:14;96600;;;19.1;62.5
68489;BME280;55481;48.764;8.936;2022-08-19T05:11:44;96610;;;19.1;62.5
68489;BME280;55481;48.764;8.936;2022-08-19T05:14:14;96610;;;19.1;62.5
68489;BME280;55481;48.764;8.936;2022-08-19T05:17:04;96620;;;19.1;62.5
68489;BME280;55481;48.764;8.936;2022-08-19T05:19:30;96620;;;19.1;62.5
68489;BME280;55481;48.764;8.936;2022-08-19T05:24:23;96630;;;19.2;62.5
68489;BME280;55481;48.764;8.936;2022-08-19T05:26:54;96640;;;19.1;62.5
68489;BME280;55481;48.764;8.936;2022-08-19T05:29:25;96640;;;19.2;62.5
68489;BME280;55481;48.764;8.936;2022-08-19T05:31:48;96650;;;19.3;62.5
68489;BME280;55481;48.764;8.936;2022-08-19T05:34:20;96650;;;19.2;62.5
68489;BME280;55481;48.764;8.936;2022-08-19T05:41:52;96680;;;19.2;62.5
68489;BME280;55481;48.764;8.936;2022-08-19T05:44:24;96690;;;19.1;63
68489;BME280;55481;48.764;8.936;2022-08-19T05:46:53;96680;;;19.2;62.5
68489;BME280;55481;48.764;8.936;2022-08-19T05:49:30;96690;;;19.3;62.5
68489;BME280;55481;48.764;8.936;2022-08-19T05:52:03;96680;;;19.2;62.5
68489;BME280;55481;48.764;8.936;2022-08-19T05:54:32;96680;;;19.2;63
68489;BME280;55481;48.764;8.936;2022-08-19T05:56:56;96690;;;19.1;63
68489;BME280;55481;48.764;8.936;2022-08-19T05:59:27;96690;;;19.1;63
68489;BME280;55481;48.764;8.936;2022-08-19T06:01:58;96680;;;19.2;63
68489;BME280;55481;48.764;8.936;2022-08-19T06:09:30;96680;;;19.3;62.5
68489;BME280;55481;48.764;8.936;2022-08-19T06:12:01;96680;;;19.2;62.5
68489;BME280;55481;48.764;8.936;2022-08-19T06:14:32;96680;;;19.2;62.5
68489;BME280;55481;48.764;8.936;2022-08-19T06:17:10;96680;;;19.2;63
68489;BME280;55481;48.764;8.936;2022-08-19T06:19:40;96680;;;19.3;62.5
68489;BME280;55481;48.764;8.936;2022-08-19T06:24:35;96670;;;19.3;62.5
68489;BME280;55481;48.764;8.936;2022-08-19T06:27:06;96670;;;19.3;62.5
68489;BME280;55481;48.764;8.936;2022-08-19T06:29:37;96670;;;19.2;63
68489;BME280;55481;48.764;8.936;2022-08-19T06:39:58;96670;;;19.5;62.5
68489;BME280;55481;48.764;8.936;2022-08-19T06:42:35;96670;;;19.4;62.5
68489;BME280;55481;48.764;8.936;2022-08-19T06:44:52;96670;;;19.4;62.5
68489;BME280;55481;48.764;8.936;2022-08-19T06:49:46;96680;;;19.3;63
68489;BME280;55481;48.764;8.936;2022-08-19T06:52:18;96680;;;19.4;63
68489;BME280;55481;48.764;8.936;2022-08-19T06:54:50;96680;;;19.4;62.5
68489;BME280;55481;48.764;8.936;2022-08-19T06:57:12;96680;;;19.4;62.5
68489;BME280;55481;48.764;8.936;2022-08-19T07:04:45;96670;;;19.7;62
68489;BME280;55481;48.764;8.936;2022-08-19T07:07:16;96670;;;19.7;62.5
68489;BME280;55481;48.764;8.936;2022-08-19T07:09:47;96680;;;19.7;62
68489;BME280;55481;48.764;8.936;2022-08-19T07:12:17;96680;;;19.9;62
68489;BME280;55481;48.764;8.936;2022-08-19T07:14:48;96680;;;19.8;62
68489;BME280;55481;48.764;8.936;2022-08-19T07:17:19;96690;;;19.9;62
68489;BME280;55481;48.764;8.936;2022-08-19T07:22:26;96690;;;19.9;62
68489;BME280;55481;48.764;8.936;2022-08-19T07:24:57;96690;;;20.1;62
68489;BME280;55481;48.764;8.936;2022-08-19T07:27:28;96700;;;20.2;61.5
68489;BME280;55481;48.764;8.936;2022-08-19T07:30:07;96700;;;20.2;62
68489;BME280;55481;48.764;8.936;2022-08-19T07:32:37;96690;;;20.2;62
68489;BME280;55481;48.764;8.936;2022-08-19T07:40:22;96700;;;20.3;62
68489;BME280;55481;48.764;8.936;2022-08-19T07:42:39;96690;;;20.4;61.5
68489;BME280;55481;48.764;8.936;2022-08-19T07:45:09;96700;;;20.4;61.5
68489;BME280;55481;48.764;8.936;2022-08-19T07:50:03;96700;;;20.4;61.5
68489;BME280;55481;48.764;8.936;2022-08-19T07:52:36;96690;;;20.5;61.5
68489;BME280;55481;48.764;8.936;2022-08-19T07:55:06;96690;;;20.6;61.5
68489;BME280;55481;48.764;8.936;2022-08-19T07:57:36;96690;;;20.5;61.5
68489;BME280;55481;48.764;8.936;2022-08-19T08:05:28;96700;;;20.2;62.5
68489;BME280;55481;48.764;8.936;2022-08-19T08:07:45;96700;;;20.2;62
68489;BME280;55481;48.764;8.936;2022-08-19T08:12:39;96690;;;20.5;61.5
68489;BME280;55481;48.764;8.936;2022-08-19T08:15:11;96690;;;20.5;61.5
68489;BME280;55481;48.764;8.936;2022-08-19T08:17:41;96690;;;20.6;61.5
68489;BME280;55481;48.764;8.936;2022-08-19T08:20:12;96700;;;20.5;61.5
68489;BME280;55481;48.764;8.936;2022-08-19T08:22:44;96700;;;20.6;61.5
68489;BME280;55481;48.764;8.936;2022-08-19T08:25:22;96710;;;20.6;61.5
68489;BME280;55481;48.764;8.936;2022-08-19T08:27:51;96700;;;20.5;62
68489;BME280;55481;48.764;8.936;2022-08-19T08:30:29;96700;;;20.5;62
68489;BME280;55481;48.764;8.936;2022-08-19T08:32:45;96710;;;20.5;62
68489;BME280;55481;48.764;8.936;2022-08-19T08:35:18;96700;;;20.6;61.5
68489;BME280;55481;48.764;8.936;2022-08-19T08:37:48;96710;;;20.5;62
68489;BME280;55481;48.764;8.936;2022-08-19T08:42:44;96710;;;20.6;61.5
68489;BME280;55481;48.764;8.936;2022-08-19T08:45:13;96710;;;20.9;61
68489;BME280;55481;48.764;8.936;2022-08-19T08:47:44;96720;;;20.9;61
68489;BME280;55481;48.764;8.936;2022-08-19T08:55:18;96720;;;20.7;61.5
68489;BME280;55481;48.764;8.936;2022-08-19T09:00:19;96720;;;20.7;61.5
68489;BME280;55481;48.764;8.936;2022-08-19T09:05:36;96710;;;21.1;60.5
68489;BME280;55481;48.764;8.936;2022-08-19T09:14:08;96710;;;21.5;61
68489;BME280;55481;48.764;8.936;2022-08-19T09:16:30;96710;;;21.7;60.5
68489;BME280;55481;48.764;8.936;2022-08-19T09:19:02;96710;;;21.6;61
68489;BME280;55481;48.764;8.936;2022-08-19T09:21:31;96720;;;21.6;60.5
68489;BME280;55481;48.764;8.936;2022-08-19T09:24:01;96720;;;21.5;61
68489;BME280;55481;48.764;8.936;2022-08-19T09:26:32;96730;;;21.3;61
68489;BME280;55481;48.764;8.936;2022-08-19T09:31:34;96730;;;21.2;61.5
68489;BME280;55481;48.764;8.936;2022-08-19T09:36:43;96720;;;21.2;61
68489;BME280;55481;48.764;8.936;2022-08-19T09:39:12;96730;;;21.2;61
68489;BME280;55481;48.764;8.936;2022-08-19T09:41:44;96720;;;21.2;61
68489;BME280;55481;48.764;8.936;2022-08-19T09:46:37;96720;;;21.4;60.5
68489;BME280;55481;48.764;8.936;2022-08-19T09:49:08;96730;;;21.5;60.5
68489;BME280;55481;48.764;8.936;2022-08-19T09:51:39;96730;;;21.5;60.5
68489;BME280;55481;48.764;8.936;2022-08-19T09:59:12;96730;;;21.3;61.5
68489;BME280;55481;48.764;8.936;2022-08-19T10:01:42;96740;;;21.2;61.5
68489;BME280;55481;48.764;8.936;2022-08-19T10:04:20;96730;;;21.4;61
68489;BME280;55481;48.764;8.936;2022-08-19T10:06:55;96730;;;21.4;61
68489;BME280;55481;48.764;8.936;2022-08-19T10:09:22;96730;;;21.5;60.5
68489;BME280;55481;48.764;8.936;2022-08-19T10:11:46;96730;;;21.7;60.5
68489;BME280;55481;48.764;8.936;2022-08-19T10:14:16;96730;;;21.7;60.5
68489;BME280;55481;48.764;8.936;2022-08-19T10:16:47;96720;;;21.7;60.5
68489;BME280;55481;48.764;8.936;2022-08-19T10:19:18;96720;;;21.9;60
68489;BME280;55481;48.764;8.936;2022-08-19T10:26:50;96740;;;22.1;60
68489;BME280;55481;48.764;8.936;2022-08-19T10:32:00;96730;;;22.1;60
68489;BME280;55481;48.764;8.936;2022-08-19T10:34:29;96730;;;22.2;60
68489;BME280;55481;48.764;8.936;2022-08-19T10:37:00;96730;;;22.1;60
68489;BME280;55481;48.764;8.936;2022-08-19T10:39:24;96730;;;22.2;60
68489;BME280;55481;48.764;8.936;2022-08-19T10:41:54;96720;;;22.3;59.5
68489;BME280;55481;48.764;8.936;2022-08-19T10:44:25;96720;;;22.4;59.5
68489;BME280;55481;48.764;8.936;2022-08-19T10:46:56;96710;;;22.8;58.5
68489;BME280;55481;48.764;8.936;2022-08-19T10:54:28;96700;;;23.3;58
68489;BME280;55481;48.764;8.936;2022-08-19T10:56:59;96690;;;23.5;57.5
68489;BME280;55481;48.764;8.936;2022-08-19T11:02:08;96700;;;23.5;58
68489;BME280;55481;48.764;8.936;2022-08-19T11:04:39;96690;;;23.7;57.5
68489;BME280;55481;48.764;8.936;2022-08-19T11:09:36;96690;;;23.5;58
68489;BME280;55481;48.764;8.936;2022-08-19T11:12:04;96690;;;23.2;59
68489;BME280;55481;48.764;8.936;2022-08-19T11:14:34;96700;;;23.2;59
68489;BME280;55481;48.764;8.936;2022-08-19T11:24:37;96690;;;22.9;59.5
68489;BME280;55481;48.764;8.936;2022-08-19T11:27:08;96690;;;23;59.5
68489;BME280;55481;48.764;8.936;2022-08-19T11:29:38;96700;;;23;59
68489;BME280;55481;48.764;8.936;2022-08-19T11:32:11;96690;;;23;59
68489;BME280;55481;48.764;8.936;2022-08-19T11:34:54;96700;;;22.8;59.5
68489;BME280;55481;48.764;8.936;2022-08-19T11:37:24;96700;;;22.8;59.5
68489;BME280;55481;48.764;8.936;2022-08-19T11:39:54;96700;;;22.9;59.5
68489;BME280;55481;48.764;8.936;2022-08-19T11:42:24;96710;;;23;59
68489;BME280;55481;48.764;8.936;2022-08-19T11:44:54;96700;;;23;59
68489;BME280;55481;48.764;8.936;2022-08-19T11:49:48;96700;;;23.1;59
68489;BME280;55481;48.764;8.936;2022-08-19T11:52:20;96700;;;23;59
68489;BME280;55481;48.764;8.936;2022-08-19T11:54:50;96700;;;22.9;59
68489;BME280;55481;48.764;8.936;2022-08-19T11:59:57;96700;;;23.1;59
68489;BME280;55481;48.764;8.936;2022-08-19T12:02:28;96700;;;23.1;59
68489;BME280;55481;48.764;8.936;2022-08-19T12:07:21;96700;;;23.4;58.5
68489;BME280;55481;48.764;8.936;2022-08-19T12:10:02;96690;;;23.6;58
68489;BME280;55481;48.764;8.936;2022-08-19T12:14:55;96680;;;24.3;56.5
68489;BME280;55481;48.764;8.936;2022-08-19T12:20:03;96670;;;25.1;55
68489;BME280;55481;48.764;8.936;2022-08-19T12:22:33;96670;;;25;55.5
68489;BME280;55481;48.764;8.936;2022-08-19T12:25:04;96660;;;25.1;55.5
68489;BME280;55481;48.764;8.936;2022-08-19T12:29:57;96650;;;26.1;53.5
68489;BME280;55481;48.764;8.936;2022-08-19T12:32:29;96650;;;26;53.5
68489;BME280;55481;48.764;8.936;2022-08-19T12:34:59;96660;;;25.7;54.5
68489;BME280;55481;48.764;8.936;2022-08-19T12:37:38;96660;;;25.8;54.5
68489;BME280;55481;48.764;8.936;2022-08-19T12:47:39;96670;;;26.9;52.5
68489;BME280;55481;48.764;8.936;2022-08-19T12:50:12;96660;;;26.3;54
68489;BME280;55481;48.764;8.936;2022-08-19T12:52:40;96660;;;26;55
68489;BME280;55481;48.764;8.936;2022-08-19T12:55:10;96670;;;25.9;55
68489;BME280;55481;48.764;8.936;2022-08-19T12:57:40;96670;;;25.8;55
68489;BME280;55481;48.764;8.936;2022-08-19T13:00:13;96680;;;26.1;54.5
68489;BME280;55481;48.764;8.936;2022-08-19T13:02:43;96680;;;26;54.5
68489;BME280;55481;48.764;8.936;2022-08-19T13:07:38;96680;;;25.9;54.5
68489;BME280;55481;48.764;8.936;2022-08-19T13:12:46;96680;;;26.5;53.5
68489;BME280;55481;48.764;8.936;2022-08-19T13:20:18;96680;;;25.6;55
68489;BME280;55481;48.764;8.936;2022-08-19T13:22:47;96680;;;25.4;55.5
68489;BME280;55481;48.764;8.936;2022-08-19T13:25:23;96680;;;25.2;56
68489;BME280;55481;48.764;8.936;2022-08-19T13:28:00;96680;;;25.2;56
68489;BME280;55481;48.764;8.936;2022-08-19T13:30:18;96680;;;25.1;56
68489;BME280;55481;48.764;8.936;2022-08-19T13:32:49;96680;;;25;56
68489;BME280;55481;48.764;8.936;2022-08-19T13:37:41;96680;;;24.8;56.5
68489;BME280;55481;48.764;8.936;2022-08-19T13:40:14;96690;;;24.8;56.5
68489;BME280;55481;48.764;8.936;2022-08-19T13:42:44;96690;;;24.7;56.5
68489;BME280;55481;48.764;8.936;2022-08-19T13:50:10;96690;;;24.8;56
68489;BME280;55481;48.764;8.936;2022-08-19T13:52:40;96690;;;25;55.5
68489;BME280;55481;48.764;8.936;2022-08-19T13:55:11;96690;;;25.1;55
68489;BME280;55481;48.764;8.936;2022-08-19T13:57:41;96690;;;24.9;55.5
68489;BME280;55481;48.764;8.936;2022-08-19T14:00:14;96690;;;24.7;56
68489;BME280;55481;48.764;8.936;2022-08-19T14:05:20;96690;;;24.2;57
68489;BME280;55481;48.764;8.936;2022-08-19T14:07:51;96700;;;24.1;57
68489;BME280;55481;48.764;8.936;2022-08-19T14:12:46;96690;;;23.9;57
68489;BME280;55481;48.764;8.936;2022-08-19T14:22:49;96700;;;23.9;57
68489;BME280;55481;48.764;8.936;2022-08-19T14:25:23;96700;;;24;56.5
68489;BME280;55481;48.764;8.936;2022-08-19T14:27:51;96700;;;24;56.5
68489;BME280;55481;48.764;8.936;2022-08-19T14:30:23;96700;;;24.2;56
68489;BME280;55481;48.764;8.936;2022-08-19T14:33:06;96690;;;24.3;56
68489;BME280;55481;48.764;8.936;2022-08-19T14:35:36;96700;;;24.3;55.5
68489;BME280;55481;48.764;8.936;2022-08-19T14:38:06;96690;;;24.3;55.5
68489;BME280;55481;48.764;8.936;2022-08-19T14:40:37;96690;;;24.3;55.5
68489;BME280;55481;48.764;8.936;2022-08-19T14:43:06;96690;;;24.3;55.5
68489;BME280;55481;48.764;8.936;2022-08-19T14:45:37;96690;;;24.2;56
68489;BME280;55481;48.764;8.936;2022-08-19T14:48:08;96690;;;24.3;55.5
68489;BME280;55481;48.764;8.936;2022-08-19T14:50:39;96690;;;24.4;55.5
68489;BME280;55481;48.764;8.936;2022-08-19T14:53:05;96680;;;24.4;55.5
68489;BME280;55481;48.764;8.936;2022-08-19T14:58:11;96690;;;24.5;55.5
68489;BME280;55481;48.764;8.936;2022-08-19T15:00:41;96690;;;24.7;55
68489;BME280;55481;48.764;8.936;2022-08-19T15:03:11;96680;;;24.8;55
68489;BME280;55481;48.764;8.936;2022-08-19T15:08:06;96680;;;25;54.5
68489;BME280;55481;48.764;8.936;2022-08-19T15:10:38;96680;;;25.4;53.5
68489;BME280;55481;48.764;8.936;2022-08-19T15:13:14;96680;;;25.7;53.5
68489;BME280;55481;48.764;8.936;2022-08-19T15:15:45;96680;;;26;53
68489;BME280;55481;48.764;8.936;2022-08-19T15:20:33;96680;;;26.1;53
68489;BME280;55481;48.764;8.936;2022-08-19T15:23:06;96680;;;26.2;53
68489;BME280;55481;48.764;8.936;2022-08-19T15:25:36;96680;;;26.4;52.5
68489;BME280;55481;48.764;8.936;2022-08-19T15:28:06;96680;;;26.1;53
68489;BME280;55481;48.764;8.936;2022-08-19T15:30:36;96680;;;26;53.5
68489;BME280;55481;48.764;8.936;2022-08-19T15:33:07;96680;;;26;53.5
68489;BME280;55481;48.764;8.936;2022-08-19T15:35:37;96680;;;25.9;54
68489;BME280;55481;48.764;8.936;2022-08-19T15:40:43;96680;;;25.5;54.5
68489;BME280;55481;48.764;8.936;2022-08-19T15:43:10;96690;;;25.5;54.5
68489;BME280;55481;48.764;8.936;2022-08-19T15:45:41;96680;;;25.5;54.5
68489;BME280;55481;48.764;8.936;2022-08-19T15:48:17;96690;;;25.4;54.5
68489;BME280;55481;48.764;8.936;2022-08-19T15:50:42;96690;;;25.3;55
68489;BME280;55481;48.764;8.936;2022-08-19T15:53:13;96690;;;25.5;54
68489;BME280;55481;48.764;8.936;2022-08-19T15:55:44;96700;;;26.1;53
68489;BME280;55481;48.764;8.936;2022-08-19T16:03:29;96700;;;27;50.5
68489;BME280;55481;48.764;8.936;2022-08-19T16:08:25;96700;;;27.1;50.5
68489;BME280;55481;48.764;8.936;2022-08-19T16:10:55;96700;;;27.2;50
68489;BME280;55481;48.764;8.936;2022-08-19T16:13:25;96700;;;27.6;49
68489;BME280;55481;48.764;8.936;2022-08-19T16:15:57;96700;;;26.7;51
68489;BME280;55481;48.764;8.936;2022-08-19T16:18:27;96700;;;26.1;52.5
68489;BME280;55481;48.764;8.936;2022-08-19T16:23:22;96700;;;25.4;54
68489;BME280;55481;48.764;8.936;2022-08-19T16:30:54;96700;;;24.8;55
68489;BME280;55481;48.764;8.936;2022-08-19T16:33:25;96700;;;24.7;55
68489;BME280;55481;48.764;8.936;2022-08-19T16:35:56;96710;;;24.5;55
68489;BME280;55481;48.764;8.936;2022-08-19T16:38:27;96710;;;24.5;55
68489;BME280;55481;48.764;8.936;2022-08-19T16:43:34;96710;;;24.3;55
68489;BME280;55481;48.764;8.936;2022-08-19T16:46:05;96710;;;24.3;55
68489;BME280;55481;48.764;8.936;2022-08-19T16:48:36;96710;;;24.2;55
68489;BME280;55481;48.764;8.936;2022-08-19T16:51:00;96720;;;24.1;55
68489;BME280;55481;48.764;8.936;2022-08-19T17:01:06;96730;;;24.1;55
68489;BME280;55481;48.764;8.936;2022-08-19T17:03:34;96730;;;24;55
68489;BME280;55481;48.764;8.936;2022-08-19T17:06:08;96730;;;24.1;55
68489;BME280;55481;48.764;8.936;2022-08-19T17:08:35;96730;;;24.1;55
68489;BME280;55481;48.764;8.936;2022-08-19T17:11:13;96730;;;24.1;55
68489;BME280;55481;48.764;8.936;2022-08-19T17:13:44;96730;;;24.1;54.5
68489;BME280;55481;48.764;8.936;2022-08-19T17:16:16;96730;;;24.1;54.5
68489;BME280;55481;48.764;8.936;2022-08-19T17:21:10;96730;;;24.2;54.5
68489;BME280;55481;48.764;8.936;2022-08-19T17:28:42;96730;;;24.2;54.5
68489;BME280;55481;48.764;8.936;2022-08-19T17:31:12;96740;;;24.1;54.5
68489;BME280;55481;48.764;8.936;2022-08-19T17:33:43;96730;;;24.1;54.5
68489;BME280;55481;48.764;8.936;2022-08-19T17:36:14;96740;;;24;55
68489;BME280;55481;48.764;8.936;2022-08-19T17:38:51;96740;;;24;55
68489;BME280;55481;48.764;8.936;2022-08-19T17:41:24;96740;;;23.9;55
68489;BME280;55481;48.764;8.936;2022-08-19T17:43:53;96740;;;23.8;55
68489;BME280;55481;48.764;8.936;2022-08-19T17:46:25;96740;;;23.7;55
68489;BME280;55481;48.764;8.936;2022-08-19T17:49:02;96750;;;23.6;55.5
68489;BME280;55481;48.764;8.936;2022-08-19T17:51:40;96750;;;23.6;55.5
68489;BME280;55481;48.764;8.936;2022-08-19T17:56:33;96750;;;23.5;55.5
68489;BME280;55481;48.764;8.936;2022-08-19T17:59:04;96750;;;23.4;55.5
68489;BME280;55481;48.764;8.936;2022-08-19T18:01:33;96750;;;23.4;55.5
68489;BME280;55481;48.764;8.936;2022-08-19T18:04:04;96750;;;23.3;55.5
68489;BME280;55481;48.764;8.936;2022-08-19T18:06:27;96750;;;23.2;55.5
68489;BME280;55481;48.764;8.936;2022-08-19T18:08:57;96760;;;23.2;55.5
68489;BME280;55481;48.764;8.936;2022-08-19T18:11:29;96760;;;23.2;55.5
68489;BME280;55481;48.764;8.936;2022-08-19T18:14:06;96770;;;23.2;55.5
68489;BME280;55481;48.764;8.936;2022-08-19T18:21:41;96770;;;23.1;55.5
68489;BME280;55481;48.764;8.936;2022-08-19T18:24:09;96770;;;23.1;55.5
68489;BME280;55481;48.764;8.936;2022-08-19T18:29:03;96780;;;23.1;55
68489;BME280;55481;48.764;8.936;2022-08-19T18:31:35;96780;;;23.2;55
68489;BME280;55481;48.764;8.936;2022-08-19T18:34:05;96790;;;23.2;55
68489;BME280;55481;48.764;8.936;2022-08-19T18:36:29;96790;;;23.1;55
68489;BME280;55481;48.764;8.936;2022-08-19T18:44:01;96800;;;22.9;55
68489;BME280;55481;48.764;8.936;2022-08-19T18:46:32;96800;;;22.8;55.5
68489;BME280;55481;48.764;8.936;2022-08-19T18:49:03;96800;;;22.7;55.5
68489;BME280;55481;48.764;8.936;2022-08-19T18:54:11;96810;;;22.5;56
68489;BME280;55481;48.764;8.936;2022-08-19T18:56:41;96810;;;22.5;56
68489;BME280;55481;48.764;8.936;2022-08-19T18:59:12;96810;;;22.4;56
68489;BME280;55481;48.764;8.936;2022-08-19T19:01:37;96810;;;22.3;56
68489;BME280;55481;48.764;8.936;2022-08-19T19:04:07;96810;;;22.3;56
68489;BME280;55481;48.764;8.936;2022-08-19T19:06:43;96810;;;22.3;56
68489;BME280;55481;48.764;8.936;2022-08-19T19:09:13;96810;;;22.3;56
68489;BME280;55481;48.764;8.936;2022-08-19T19:11:43;96820;;;22.3;56
68489;BME280;55481;48.764;8.936;2022-08-19T19:14:10;96820;;;22.3;55.5
68489;BME280;55481;48.764;8.936;2022-08-19T19:24:32;96820;;;22.3;55.5
68489;BME280;55481;48.764;8.936;2022-08-19T19:27:14;96820;;;22.3;55.5
68489;BME280;55481;48.764;8.936;2022-08-19T19:31:49;96830;;;22.2;55.5